Butes — A8UR6 — position and weather

sailwx.info

Track history (hours):
 
Tides and Currents Weather Stations Pressure Air Temp Water Temp Dewpoint Dewpoint Depression Visibility Wind Speed Wind Dir Waves Ship Positions

Butes

Last reported at 2015-May-23 00:33 UTC. Time now 2015-May-23 01:16 UTC.
Position N 54°17' E 009°38'.

Length 90 m; draft 3.3 m.

Type: Cargo ship. MMSI: 636091937.

Date/timePositionNaut miles runAvg speedWind from/ knotsBaromVisibWave heightAir tempDewpointWater temp
2015-May-23 00:33N 54°17' E 009°38'6 6.1
2015-May-22 23:33N 54°12' E 009°33'17 7.6
2015-May-22 21:19N 53°58' E 009°16'5 6.4
2015-May-22 20:33N 53°54' E 009°10'2 2.5
2015-May-22 19:33N 53°53' E 009°07'3 3.4
2015-May-22 18:33N 53°51' E 009°02'7 7.4
2015-May-22 17:33N 53°50' E 008°49'9 8.6
2015-May-22 16:33N 53°56' E 008°39'9 9.0
2015-May-22 15:32N 53°59' E 008°24'9 9.1
2015-May-22 14:33N 53°59' E 008°09'9 8.7
2015-May-22 13:33N 53°57' E 007°54'10 9.7
2015-May-22 12:33N 53°55' E 007°38'9 9.4
2015-May-22 11:33N 53°53' E 007°23'9 8.6
2015-May-22 10:33N 53°51' E 007°08'27 8.8
2015-May-22 07:32N 53°44' E 006°25'8 8.0
2015-May-22 06:33N 53°42' E 006°12'7 6.6
2015-May-22 05:32N 53°40' E 006°01'5 5.2
2015-May-22 04:33N 53°39' E 005°53'5 5.1
2015-May-22 03:33N 53°37' E 005°44'5 5.2
2015-May-22 02:33N 53°36' E 005°36'5 5.4
2015-May-22 01:33N 53°34' E 005°28'6 5.7
2015-May-22 00:33N 53°32' E 005°19'6 6.4
2015-May-21 23:33N 53°30' E 005°09'7 7.1
2015-May-21 22:33N 53°27' E 004°57'8 8.2
2015-May-21 21:33N 53°24' E 004°44'1210.0
2015-May-21 20:20N 53°14' E 004°34'810.0
2015-May-21 19:33N 53°07' E 004°27'10 9.9
2015-May-21 18:33N 52°58' E 004°20'1010.3
2015-May-21 17:33N 52°49' E 004°13'10 9.8
2015-May-21 16:30N 52°41' E 004°02'9 9.5
2015-May-21 15:33N 52°34' E 003°51'9 8.6
2015-May-21 14:33N 52°28' E 003°42'36 7.0
2015-May-21 09:24N 51°54' E 003°23'6 6.3
2015-May-21 08:32N 51°49' E 003°20'6 6.3
2015-May-21 07:31N 51°43' E 003°17'1010.6
2015-May-21 06:33N 51°34' E 003°25'1110.7
2015-May-21 05:34N 51°26' E 003°36'1111.0
2015-May-21 04:33N 51°21' E 003°52'8 7.7
2015-May-21 03:33N 51°26' E 004°01'6 5.6
2015-May-21 02:33N 51°23' E 004°08'5 4.9
2015-May-21 01:33N 51°21' E 004°16'1 0.9
2015-May-21 00:33N 51°21' E 004°17'0 0.2
2015-May-20 23:33N 51°21' E 004°18'3 3.3
2015-May-20 22:33N 51°18' E 004°20'4 3.7
2015-May-20 21:31N 51°15' E 004°24'0 0.0
2015-May-20 20:31N 51°15' E 004°24'0 0.0
2015-May-20 19:31N 51°15' E 004°24'0 0.0
2015-May-20 18:31N 51°15' E 004°24'0 0.0
2015-May-20 17:31N 51°15' E 004°24'0 0.0
2015-May-20 16:31N 51°15' E 004°24'0 0.0
2015-May-20 15:31N 51°15' E 004°24'0 0.0
2015-May-20 14:31N 51°15' E 004°24'0 0.0
2015-May-20 13:31N 51°15' E 004°24'0 0.0
2015-May-20 12:31N 51°15' E 004°24'0 0.0
2015-May-20 11:31N 51°15' E 004°24'0 0.0
2015-May-20 10:31N 51°15' E 004°24'0 0.0
2015-May-20 09:33N 51°15' E 004°24'3 2.9
2015-May-20 08:33N 51°17' E 004°20'2 2.2
2015-May-20 07:33N 51°18' E 004°17'6 6.3
2015-May-20 06:33N 51°24' E 004°12'6 6.1
2015-May-20 05:33N 51°23' E 004°03'4 3.6
2015-May-20 04:33N 51°24' E 003°57'7 7.3
2015-May-20 03:33N 51°21' E 003°47'8 8.3
2015-May-20 02:33N 51°25' E 003°35'1111.1
2015-May-20 01:31N 51°23' E 003°17'1111.1
2015-May-20 00:33N 51°22' E 002°60'1010.2
2015-May-19 23:33N 51°21' E 002°44'4 4.4
2015-May-19 22:33N 51°21' E 002°36'4 4.3
2015-May-19 21:33N 51°22' E 002°30'4 4.3
2015-May-19 20:32N 51°20' E 002°23'5 5.0
2015-May-19 19:32N 51°17' E 002°17'6 5.3
2015-May-19 18:20N 51°13' E 002°08'4 5.2
2015-May-19 17:33N 51°11' E 002°03'5 5.1
2015-May-19 16:34N 51°09' E 001°55'5 5.1
2015-May-19 15:33N 51°07' E 001°48'6 5.6
2015-May-19 14:33N 51°03' E 001°42'75 5.0
2015-May-18 23:33N 50°50' W 000°15'1 0.5
2015-May-18 21:04N 50°50' W 000°13'0 0.0
2015-May-18 20:28N 50°50' W 000°13'0 0.0
2015-May-18 19:22N 50°50' W 000°13'0 0.0
2015-May-18 18:22N 50°50' W 000°13'0 0.0
2015-May-18 17:28N 50°50' W 000°13'0 0.0
2015-May-18 16:28N 50°50' W 000°13'0 0.0
2015-May-18 15:28N 50°50' W 000°13'0 0.0
2015-May-18 14:28N 50°50' W 000°13'0 0.0
2015-May-18 12:16N 50°50' W 000°13'0 0.0
2015-May-18 07:10N 50°50' W 000°13'0 0.0
2015-May-18 06:22N 50°50' W 000°13'0 0.0
2015-May-18 05:28N 50°50' W 000°13'0 0.0
2015-May-18 04:22N 50°50' W 000°13'0 0.0
2015-May-18 02:28N 50°50' W 000°13'0 0.0
2015-May-18 01:22N 50°50' W 000°13'0 0.0
2015-May-18 00:28N 50°50' W 000°13'0 0.0
2015-May-17 23:22N 50°50' W 000°13'0 0.0
2015-May-17 22:22N 50°50' W 000°13'0 0.0
2015-May-17 21:22N 50°50' W 000°13'0 0.0
2015-May-17 20:22N 50°50' W 000°13'0 0.0
2015-May-17 19:10N 50°50' W 000°13'0 0.0
2015-May-17 18:16N 50°50' W 000°13'0 0.0
2015-May-17 17:04N 50°50' W 000°13'0 0.0
2015-May-17 13:10N 50°50' W 000°13'0 0.0
2015-May-17 12:22N 50°50' W 000°13'0 0.0
2015-May-17 10:04N 50°50' W 000°13'0 0.0
2015-May-17 08:16N 50°50' W 000°13'0 0.0
2015-May-17 06:28N 50°50' W 000°13'0 0.0
2015-May-17 05:10N 50°50' W 000°13'0 0.0
2015-May-17 04:28N 50°50' W 000°13'0 0.0
2015-May-17 03:28N 50°50' W 000°13'0 0.0
2015-May-17 02:28N 50°50' W 000°13'0 0.0
2015-May-17 01:22N 50°50' W 000°13'0 0.0
2015-May-17 00:28N 50°50' W 000°13'0 0.0
2015-May-16 23:28N 50°50' W 000°13'0 0.0
2015-May-16 22:28N 50°50' W 000°13'0 0.0
2015-May-16 21:28N 50°50' W 000°13'0 0.0
2015-May-16 20:16N 50°50' W 000°13'0 0.0
2015-May-16 19:28N 50°50' W 000°13'0 0.0
2015-May-16 17:10N 50°50' W 000°13'0 0.0
2015-May-16 16:28N 50°50' W 000°13'0 0.0
2015-May-16 14:16N 50°50' W 000°13'0 0.0
2015-May-16 12:28N 50°50' W 000°13'0 0.0
2015-May-16 11:28N 50°50' W 000°13'0 0.0
2015-May-16 09:28N 50°50' W 000°13'0 0.0
2015-May-16 08:16N 50°50' W 000°13'0 0.0
2015-May-16 07:22N 50°50' W 000°13'0 0.0
2015-May-16 05:28N 50°50' W 000°13'0 0.0
2015-May-16 04:28N 50°50' W 000°13'0 0.0
2015-May-16 03:28N 50°50' W 000°13'0 0.0
2015-May-16 02:28N 50°50' W 000°13'0 0.0
2015-May-16 01:28N 50°50' W 000°13'0 0.0
2015-May-16 00:10N 50°50' W 000°13'0 0.0
2015-May-15 22:16N 50°50' W 000°13'0 0.0
2015-May-15 21:10N 50°50' W 000°13'0 0.0
2015-May-15 20:16N 50°50' W 000°13'0 0.0
2015-May-15 18:22N 50°50' W 000°13'0 0.0
2015-May-15 17:22N 50°50' W 000°13'0 0.0
2015-May-15 16:28N 50°50' W 000°13'0 0.0
2015-May-15 15:16N 50°50' W 000°13'24 1.8
2015-May-15 01:30N 50°34' E 000°16'6 6.0
2015-May-15 00:33N 50°36' E 000°25'6 5.8
2015-May-14 23:32N 50°37' E 000°34'5 5.4
2015-May-14 22:33N 50°40' E 000°41'5 4.7
2015-May-14 21:33N 50°43' E 000°47'4 3.7
2015-May-14 20:33N 50°45' E 000°51'17 3.8
2015-May-14 16:08N 50°56' E 001°12'4 6.2
2015-May-14 15:33N 50°58' E 001°16'7 7.0
2015-May-14 14:34N 51°03' E 001°24'8 8.0
2015-May-14 13:33N 51°08' E 001°34'7 7.5
2015-May-14 12:34N 51°15' E 001°40'7 6.5
2015-May-14 11:33N 51°21' E 001°42'6 5.8
2015-May-14 10:33N 51°27' E 001°45'6 6.0
2015-May-14 09:33N 51°33' E 001°45'8 8.1
2015-May-14 08:33N 51°41' E 001°45'8 8.0
2015-May-14 07:33N 51°49' E 001°44'9 8.9
2015-May-14 06:33N 51°58' E 001°45'10 9.8
2015-May-14 05:33N 52°07' E 001°48'1310.0
2015-May-14 04:17N 52°20' E 001°52'810.3
2015-May-14 03:33N 52°27' E 001°54'10 9.8
2015-May-14 02:32N 52°37' E 001°58'8 7.8
2015-May-14 01:33N 52°44' E 001°56'8 7.7
2015-May-14 00:32N 52°49' E 001°46'7 6.8
2015-May-13 23:33N 52°54' E 001°38'6 6.2
2015-May-13 22:33N 52°58' E 001°31'6 5.9
2015-May-13 21:33N 53°03' E 001°25'7 6.2
2015-May-13 20:30N 53°08' E 001°18'42 7.1
2015-May-13 14:32N 53°39' E 000°30'8 8.6
2015-May-13 13:34N 53°46' E 000°23'9 9.1
2015-May-13 12:33N 53°54' E 000°16'9 9.3
2015-May-13 11:33N 54°03' E 000°09'10 9.6
2015-May-13 10:33N 54°11' W 000°00'9 9.4
2015-May-13 09:34N 54°18' W 000°10'9 8.9
2015-May-13 08:34N 54°25' W 000°20'9 8.5
2015-May-13 07:34N 54°32' W 000°28'9 8.1
2015-May-13 06:30N 54°35' W 000°42'8 7.9
2015-May-13 05:32N 54°39' W 000°53'4 4.0
2015-May-13 04:28N 54°41' W 001°00'0 0.0
2015-May-13 03:25N 54°41' W 001°00'0 0.0
2015-May-13 02:28N 54°41' W 001°00'0 0.0
2015-May-13 01:33N 54°41' W 001°00'  
Track history (hours):
 
Tides and Currents Weather Stations Pressure Air Temp Water Temp Dewpoint Dewpoint Depression Visibility Wind Speed Wind Dir Waves Ship Positions

Butes

Last reported at 2015-May-23 00:33 UTC. Time now 2015-May-23 01:16 UTC.
Position N 54°17' E 009°38'.

Length 90 m; draft 3.3 m.

Type: Cargo ship. MMSI: 636091937.

Date/timePositionNaut miles runAvg speedWind from/ knotsBaromVisibWave heightAir tempDewpointWater temp
2015-May-23 00:33N 54°17' E 009°38'6 6.1
2015-May-22 23:33N 54°12' E 009°33'17 7.6
2015-May-22 21:19N 53°58' E 009°16'5 6.4
2015-May-22 20:33N 53°54' E 009°10'2 2.5
2015-May-22 19:33N 53°53' E 009°07'3 3.4
2015-May-22 18:33N 53°51' E 009°02'7 7.4
2015-May-22 17:33N 53°50' E 008°49'9 8.6
2015-May-22 16:33N 53°56' E 008°39'9 9.0
2015-May-22 15:32N 53°59' E 008°24'9 9.1
2015-May-22 14:33N 53°59' E 008°09'9 8.7
2015-May-22 13:33N 53°57' E 007°54'10 9.7
2015-May-22 12:33N 53°55' E 007°38'9 9.4
2015-May-22 11:33N 53°53' E 007°23'9 8.6
2015-May-22 10:33N 53°51' E 007°08'27 8.8
2015-May-22 07:32N 53°44' E 006°25'8 8.0
2015-May-22 06:33N 53°42' E 006°12'7 6.6
2015-May-22 05:32N 53°40' E 006°01'5 5.2
2015-May-22 04:33N 53°39' E 005°53'5 5.1
2015-May-22 03:33N 53°37' E 005°44'5 5.2
2015-May-22 02:33N 53°36' E 005°36'5 5.4
2015-May-22 01:33N 53°34' E 005°28'6 5.7
2015-May-22 00:33N 53°32' E 005°19'6 6.4
2015-May-21 23:33N 53°30' E 005°09'7 7.1
2015-May-21 22:33N 53°27' E 004°57'8 8.2
2015-May-21 21:33N 53°24' E 004°44'1210.0
2015-May-21 20:20N 53°14' E 004°34'810.0
2015-May-21 19:33N 53°07' E 004°27'10 9.9
2015-May-21 18:33N 52°58' E 004°20'1010.3
2015-May-21 17:33N 52°49' E 004°13'10 9.8
2015-May-21 16:30N 52°41' E 004°02'9 9.5
2015-May-21 15:33N 52°34' E 003°51'9 8.6
2015-May-21 14:33N 52°28' E 003°42'36 7.0
2015-May-21 09:24N 51°54' E 003°23'6 6.3
2015-May-21 08:32N 51°49' E 003°20'6 6.3
2015-May-21 07:31N 51°43' E 003°17'1010.6
2015-May-21 06:33N 51°34' E 003°25'1110.7
2015-May-21 05:34N 51°26' E 003°36'1111.0
2015-May-21 04:33N 51°21' E 003°52'8 7.7
2015-May-21 03:33N 51°26' E 004°01'6 5.6
2015-May-21 02:33N 51°23' E 004°08'5 4.9
2015-May-21 01:33N 51°21' E 004°16'1 0.9
2015-May-21 00:33N 51°21' E 004°17'0 0.2
2015-May-20 23:33N 51°21' E 004°18'3 3.3
2015-May-20 22:33N 51°18' E 004°20'4 3.7
2015-May-20 21:31N 51°15' E 004°24'0 0.0
2015-May-20 20:31N 51°15' E 004°24'0 0.0
2015-May-20 19:31N 51°15' E 004°24'0 0.0
2015-May-20 18:31N 51°15' E 004°24'0 0.0
2015-May-20 17:31N 51°15' E 004°24'0 0.0
2015-May-20 16:31N 51°15' E 004°24'0 0.0
2015-May-20 15:31N 51°15' E 004°24'0 0.0
2015-May-20 14:31N 51°15' E 004°24'0 0.0
2015-May-20 13:31N 51°15' E 004°24'0 0.0
2015-May-20 12:31N 51°15' E 004°24'0 0.0
2015-May-20 11:31N 51°15' E 004°24'0 0.0
2015-May-20 10:31N 51°15' E 004°24'0 0.0
2015-May-20 09:33N 51°15' E 004°24'3 2.9
2015-May-20 08:33N 51°17' E 004°20'2 2.2
2015-May-20 07:33N 51°18' E 004°17'6 6.3
2015-May-20 06:33N 51°24' E 004°12'6 6.1
2015-May-20 05:33N 51°23' E 004°03'4 3.6
2015-May-20 04:33N 51°24' E 003°57'7 7.3
2015-May-20 03:33N 51°21' E 003°47'8 8.3
2015-May-20 02:33N 51°25' E 003°35'1111.1
2015-May-20 01:31N 51°23' E 003°17'1111.1
2015-May-20 00:33N 51°22' E 002°60'1010.2
2015-May-19 23:33N 51°21' E 002°44'4 4.4
2015-May-19 22:33N 51°21' E 002°36'4 4.3
2015-May-19 21:33N 51°22' E 002°30'4 4.3
2015-May-19 20:32N 51°20' E 002°23'5 5.0
2015-May-19 19:32N 51°17' E 002°17'6 5.3
2015-May-19 18:20N 51°13' E 002°08'4 5.2
2015-May-19 17:33N 51°11' E 002°03'5 5.1
2015-May-19 16:34N 51°09' E 001°55'5 5.1
2015-May-19 15:33N 51°07' E 001°48'6 5.6
2015-May-19 14:33N 51°03' E 001°42'75 5.0
2015-May-18 23:33N 50°50' W 000°15'1 0.5
2015-May-18 21:04N 50°50' W 000°13'0 0.0
2015-May-18 20:28N 50°50' W 000°13'0 0.0
2015-May-18 19:22N 50°50' W 000°13'0 0.0
2015-May-18 18:22N 50°50' W 000°13'0 0.0
2015-May-18 17:28N 50°50' W 000°13'0 0.0
2015-May-18 16:28N 50°50' W 000°13'0 0.0
2015-May-18 15:28N 50°50' W 000°13'0 0.0
2015-May-18 14:28N 50°50' W 000°13'0 0.0
2015-May-18 12:16N 50°50' W 000°13'0 0.0
2015-May-18 07:10N 50°50' W 000°13'0 0.0
2015-May-18 06:22N 50°50' W 000°13'0 0.0
2015-May-18 05:28N 50°50' W 000°13'0 0.0
2015-May-18 04:22N 50°50' W 000°13'0 0.0
2015-May-18 02:28N 50°50' W 000°13'0 0.0
2015-May-18 01:22N 50°50' W 000°13'0 0.0
2015-May-18 00:28N 50°50' W 000°13'0 0.0
2015-May-17 23:22N 50°50' W 000°13'0 0.0
2015-May-17 22:22N 50°50' W 000°13'0 0.0
2015-May-17 21:22N 50°50' W 000°13'0 0.0
2015-May-17 20:22N 50°50' W 000°13'0 0.0
2015-May-17 19:10N 50°50' W 000°13'0 0.0
2015-May-17 18:16N 50°50' W 000°13'0 0.0
2015-May-17 17:04N 50°50' W 000°13'0 0.0
2015-May-17 13:10N 50°50' W 000°13'0 0.0
2015-May-17 12:22N 50°50' W 000°13'0 0.0
2015-May-17 10:04N 50°50' W 000°13'0 0.0
2015-May-17 08:16N 50°50' W 000°13'0 0.0
2015-May-17 06:28N 50°50' W 000°13'0 0.0
2015-May-17 05:10N 50°50' W 000°13'0 0.0
2015-May-17 04:28N 50°50' W 000°13'0 0.0
2015-May-17 03:28N 50°50' W 000°13'0 0.0
2015-May-17 02:28N 50°50' W 000°13'0 0.0
2015-May-17 01:22N 50°50' W 000°13'0 0.0
2015-May-17 00:28N 50°50' W 000°13'0 0.0
2015-May-16 23:28N 50°50' W 000°13'0 0.0
2015-May-16 22:28N 50°50' W 000°13'0 0.0
2015-May-16 21:28N 50°50' W 000°13'0 0.0
2015-May-16 20:16N 50°50' W 000°13'0 0.0
2015-May-16 19:28N 50°50' W 000°13'0 0.0
2015-May-16 17:10N 50°50' W 000°13'0 0.0
2015-May-16 16:28N 50°50' W 000°13'0 0.0
2015-May-16 14:16N 50°50' W 000°13'0 0.0
2015-May-16 12:28N 50°50' W 000°13'0 0.0
2015-May-16 11:28N 50°50' W 000°13'0 0.0
2015-May-16 09:28N 50°50' W 000°13'0 0.0
2015-May-16 08:16N 50°50' W 000°13'0 0.0
2015-May-16 07:22N 50°50' W 000°13'0 0.0
2015-May-16 05:28N 50°50' W 000°13'0 0.0
2015-May-16 04:28N 50°50' W 000°13'0 0.0
2015-May-16 03:28N 50°50' W 000°13'0 0.0
2015-May-16 02:28N 50°50' W 000°13'0 0.0
2015-May-16 01:28N 50°50' W 000°13'0 0.0
2015-May-16 00:10N 50°50' W 000°13'0 0.0
2015-May-15 22:16N 50°50' W 000°13'0 0.0
2015-May-15 21:10N 50°50' W 000°13'0 0.0
2015-May-15 20:16N 50°50' W 000°13'0 0.0
2015-May-15 18:22N 50°50' W 000°13'0 0.0
2015-May-15 17:22N 50°50' W 000°13'0 0.0
2015-May-15 16:28N 50°50' W 000°13'0 0.0
2015-May-15 15:16N 50°50' W 000°13'24 1.8
2015-May-15 01:30N 50°34' E 000°16'6 6.0
2015-May-15 00:33N 50°36' E 000°25'6 5.8
2015-May-14 23:32N 50°37' E 000°34'5 5.4
2015-May-14 22:33N 50°40' E 000°41'5 4.7
2015-May-14 21:33N 50°43' E 000°47'4 3.7
2015-May-14 20:33N 50°45' E 000°51'17 3.8
2015-May-14 16:08N 50°56' E 001°12'4 6.2
2015-May-14 15:33N 50°58' E 001°16'7 7.0
2015-May-14 14:34N 51°03' E 001°24'8 8.0
2015-May-14 13:33N 51°08' E 001°34'7 7.5
2015-May-14 12:34N 51°15' E 001°40'7 6.5
2015-May-14 11:33N 51°21' E 001°42'6 5.8
2015-May-14 10:33N 51°27' E 001°45'6 6.0
2015-May-14 09:33N 51°33' E 001°45'8 8.1
2015-May-14 08:33N 51°41' E 001°45'8 8.0
2015-May-14 07:33N 51°49' E 001°44'9 8.9
2015-May-14 06:33N 51°58' E 001°45'10 9.8
2015-May-14 05:33N 52°07' E 001°48'1310.0
2015-May-14 04:17N 52°20' E 001°52'810.3
2015-May-14 03:33N 52°27' E 001°54'10 9.8
2015-May-14 02:32N 52°37' E 001°58'8 7.8
2015-May-14 01:33N 52°44' E 001°56'8 7.7
2015-May-14 00:32N 52°49' E 001°46'7 6.8
2015-May-13 23:33N 52°54' E 001°38'6 6.2
2015-May-13 22:33N 52°58' E 001°31'6 5.9
2015-May-13 21:33N 53°03' E 001°25'7 6.2
2015-May-13 20:30N 53°08' E 001°18'42 7.1
2015-May-13 14:32N 53°39' E 000°30'8 8.6
2015-May-13 13:34N 53°46' E 000°23'9 9.1
2015-May-13 12:33N 53°54' E 000°16'9 9.3
2015-May-13 11:33N 54°03' E 000°09'10 9.6
2015-May-13 10:33N 54°11' W 000°00'9 9.4
2015-May-13 09:34N 54°18' W 000°10'9 8.9
2015-May-13 08:34N 54°25' W 000°20'9 8.5
2015-May-13 07:34N 54°32' W 000°28'9 8.1
2015-May-13 06:30N 54°35' W 000°42'8 7.9
2015-May-13 05:32N 54°39' W 000°53'4 4.0
2015-May-13 04:28N 54°41' W 001°00'0 0.0
2015-May-13 03:25N 54°41' W 001°00'0 0.0
2015-May-13 02:28N 54°41' W 001°00'0 0.0
2015-May-13 01:33N 54°41' W 001°00'  

Dump ship's entire track history